sensor_id;sensor_type;location;lat;lon;timestamp;temperature;humidity
64817;DHT22;69411;45.656;11.740;2023-12-20T00:01:50;3.70;72.40
64817;DHT22;69411;45.656;11.740;2023-12-20T00:04:15;3.80;72.40
64817;DHT22;69411;45.656;11.740;2023-12-20T00:06:41;3.80;72.10
64817;DHT22;69411;45.656;11.740;2023-12-20T00:09:07;3.80;72.00
64817;DHT22;69411;45.656;11.740;2023-12-20T00:11:33;3.80;72.10
64817;DHT22;69411;45.656;11.740;2023-12-20T00:13:59;3.80;71.90
64817;DHT22;69411;45.656;11.740;2023-12-20T00:16:25;3.80;72.00
64817;DHT22;69411;45.656;11.740;2023-12-20T00:18:50;3.70;71.90
64817;DHT22;69411;45.656;11.740;2023-12-20T00:21:17;3.70;71.80
64817;DHT22;69411;45.656;11.740;2023-12-20T00:23:42;3.70;71.80
64817;DHT22;69411;45.656;11.740;2023-12-20T00:26:08;3.60;71.90
64817;DHT22;69411;45.656;11.740;2023-12-20T00:28:34;3.60;72.00
64817;DHT22;69411;45.656;11.740;2023-12-20T00:31:00;3.60;72.00
64817;DHT22;69411;45.656;11.740;2023-12-20T00:33:26;3.60;72.30
64817;DHT22;69411;45.656;11.740;2023-12-20T00:35:52;3.50;72.20
64817;DHT22;69411;45.656;11.740;2023-12-20T00:38:18;3.50;72.30
64817;DHT22;69411;45.656;11.740;2023-12-20T00:40:44;3.50;72.50
64817;DHT22;69411;45.656;11.740;2023-12-20T00:43:10;3.50;72.60
64817;DHT22;69411;45.656;11.740;2023-12-20T00:45:36;3.50;72.40
64817;DHT22;69411;45.656;11.740;2023-12-20T00:48:02;3.50;72.30
64817;DHT22;69411;45.656;11.740;2023-12-20T00:50:29;3.50;72.50
64817;DHT22;69411;45.656;11.740;2023-12-20T00:52:54;3.40;72.40
64817;DHT22;69411;45.656;11.740;2023-12-20T00:55:20;3.40;72.50
64817;DHT22;69411;45.656;11.740;2023-12-20T00:57:46;3.30;72.40
64817;DHT22;69411;45.656;11.740;2023-12-20T01:00:13;3.30;72.60
64817;DHT22;69411;45.656;11.740;2023-12-20T01:02:39;3.30;72.00
64817;DHT22;69411;45.656;11.740;2023-12-20T01:05:06;3.30;72.30
64817;DHT22;69411;45.656;11.740;2023-12-20T01:07:33;3.30;72.50
64817;DHT22;69411;45.656;11.740;2023-12-20T01:09:59;3.30;72.50
64817;DHT22;69411;45.656;11.740;2023-12-20T01:12:26;3.30;72.70
64817;DHT22;69411;45.656;11.740;2023-12-20T01:14:52;3.30;72.70
64817;DHT22;69411;45.656;11.740;2023-12-20T01:17:18;3.30;72.80
64817;DHT22;69411;45.656;11.740;2023-12-20T01:19:44;3.40;72.70
64817;DHT22;69411;45.656;11.740;2023-12-20T01:22:09;3.30;72.90
64817;DHT22;69411;45.656;11.740;2023-12-20T01:24:35;3.40;72.80
64817;DHT22;69411;45.656;11.740;2023-12-20T01:27:01;3.40;72.90
64817;DHT22;69411;45.656;11.740;2023-12-20T01:29:27;3.30;73.00
64817;DHT22;69411;45.656;11.740;2023-12-20T01:31:53;3.40;73.20
64817;DHT22;69411;45.656;11.740;2023-12-20T01:34:19;3.40;73.20
64817;DHT22;69411;45.656;11.740;2023-12-20T01:36:45;3.40;73.10
64817;DHT22;69411;45.656;11.740;2023-12-20T01:39:11;3.40;73.20
64817;DHT22;69411;45.656;11.740;2023-12-20T01:41:37;3.40;73.00
64817;DHT22;69411;45.656;11.740;2023-12-20T01:44:03;3.40;72.80
64817;DHT22;69411;45.656;11.740;2023-12-20T01:46:30;3.40;72.60
64817;DHT22;69411;45.656;11.740;2023-12-20T01:48:56;3.40;72.90
64817;DHT22;69411;45.656;11.740;2023-12-20T01:51:22;3.40;73.00
64817;DHT22;69411;45.656;11.740;2023-12-20T01:53:49;3.40;73.00
64817;DHT22;69411;45.656;11.740;2023-12-20T01:56:15;3.40;73.10
64817;DHT22;69411;45.656;11.740;2023-12-20T01:58:46;3.40;72.90
64817;DHT22;69411;45.656;11.740;2023-12-20T02:01:13;3.50;73.00
64817;DHT22;69411;45.656;11.740;2023-12-20T02:03:41;3.50;73.00
64817;DHT22;69411;45.656;11.740;2023-12-20T02:06:08;3.50;72.80
64817;DHT22;69411;45.656;11.740;2023-12-20T02:08:35;3.50;73.00
64817;DHT22;69411;45.656;11.740;2023-12-20T02:11:01;3.50;72.90
64817;DHT22;69411;45.656;11.740;2023-12-20T02:13:27;3.40;72.70
64817;DHT22;69411;45.656;11.740;2023-12-20T02:15:54;3.40;72.70
64817;DHT22;69411;45.656;11.740;2023-12-20T02:18:20;3.40;72.60
64817;DHT22;69411;45.656;11.740;2023-12-20T02:20:46;3.30;72.50
64817;DHT22;69411;45.656;11.740;2023-12-20T02:23:12;3.30;72.60
64817;DHT22;69411;45.656;11.740;2023-12-20T02:25:38;3.30;72.50
64817;DHT22;69411;45.656;11.740;2023-12-20T02:28:05;3.30;72.40
64817;DHT22;69411;45.656;11.740;2023-12-20T02:30:31;3.30;72.40
64817;DHT22;69411;45.656;11.740;2023-12-20T02:32:57;3.30;72.60
64817;DHT22;69411;45.656;11.740;2023-12-20T02:35:25;3.30;72.80
64817;DHT22;69411;45.656;11.740;2023-12-20T02:37:51;3.30;72.90
64817;DHT22;69411;45.656;11.740;2023-12-20T02:40:17;3.30;72.70
64817;DHT22;69411;45.656;11.740;2023-12-20T02:42:43;3.30;72.80
64817;DHT22;69411;45.656;11.740;2023-12-20T02:45:09;3.30;72.90
64817;DHT22;69411;45.656;11.740;2023-12-20T02:47:35;3.20;72.70
64817;DHT22;69411;45.656;11.740;2023-12-20T02:50:01;3.30;72.90
64817;DHT22;69411;45.656;11.740;2023-12-20T02:52:28;3.20;73.00
64817;DHT22;69411;45.656;11.740;2023-12-20T02:54:54;3.20;73.10
64817;DHT22;69411;45.656;11.740;2023-12-20T02:57:20;3.20;73.20
64817;DHT22;69411;45.656;11.740;2023-12-20T02:59:46;3.20;73.40
64817;DHT22;69411;45.656;11.740;2023-12-20T03:02:12;3.20;73.20
64817;DHT22;69411;45.656;11.740;2023-12-20T03:04:38;3.20;72.90
64817;DHT22;69411;45.656;11.740;2023-12-20T03:07:04;3.20;73.00
64817;DHT22;69411;45.656;11.740;2023-12-20T03:09:30;3.20;73.00
64817;DHT22;69411;45.656;11.740;2023-12-20T03:11:56;3.20;73.20
64817;DHT22;69411;45.656;11.740;2023-12-20T03:14:22;3.20;72.90
64817;DHT22;69411;45.656;11.740;2023-12-20T03:16:51;3.20;72.90
64817;DHT22;69411;45.656;11.740;2023-12-20T03:19:17;3.30;72.70
64817;DHT22;69411;45.656;11.740;2023-12-20T03:21:44;3.20;72.60
64817;DHT22;69411;45.656;11.740;2023-12-20T03:24:11;3.30;72.80
64817;DHT22;69411;45.656;11.740;2023-12-20T03:26:36;3.20;72.90
64817;DHT22;69411;45.656;11.740;2023-12-20T03:29:02;3.20;73.00
64817;DHT22;69411;45.656;11.740;2023-12-20T03:31:28;3.20;73.10
64817;DHT22;69411;45.656;11.740;2023-12-20T03:33:54;3.20;72.90
64817;DHT22;69411;45.656;11.740;2023-12-20T03:36:20;3.20;72.80
64817;DHT22;69411;45.656;11.740;2023-12-20T03:38:46;3.20;72.60
64817;DHT22;69411;45.656;11.740;2023-12-20T03:41:13;3.10;72.70
64817;DHT22;69411;45.656;11.740;2023-12-20T03:43:39;3.10;72.70
64817;DHT22;69411;45.656;11.740;2023-12-20T03:46:05;3.10;72.80
64817;DHT22;69411;45.656;11.740;2023-12-20T03:48:31;3.10;72.90
64817;DHT22;69411;45.656;11.740;2023-12-20T03:50:57;3.10;72.80
64817;DHT22;69411;45.656;11.740;2023-12-20T03:53:23;3.10;73.00
64817;DHT22;69411;45.656;11.740;2023-12-20T03:55:49;3.10;72.80
64817;DHT22;69411;45.656;11.740;2023-12-20T03:58:15;3.00;72.80
64817;DHT22;69411;45.656;11.740;2023-12-20T04:00:40;3.00;72.60
64817;DHT22;69411;45.656;11.740;2023-12-20T04:03:07;2.90;72.50
64817;DHT22;69411;45.656;11.740;2023-12-20T04:05:33;2.90;72.70
64817;DHT22;69411;45.656;11.740;2023-12-20T04:08:01;2.80;72.80
64817;DHT22;69411;45.656;11.740;2023-12-20T04:10:27;2.90;73.10
64817;DHT22;69411;45.656;11.740;2023-12-20T04:12:53;2.90;73.30
64817;DHT22;69411;45.656;11.740;2023-12-20T04:15:20;2.90;73.50
64817;DHT22;69411;45.656;11.740;2023-12-20T04:17:46;2.90;73.40
64817;DHT22;69411;45.656;11.740;2023-12-20T04:20:12;3.00;73.70
64817;DHT22;69411;45.656;11.740;2023-12-20T04:22:38;3.00;73.60
64817;DHT22;69411;45.656;11.740;2023-12-20T04:25:04;3.10;73.80
64817;DHT22;69411;45.656;11.740;2023-12-20T04:27:30;3.10;73.80
64817;DHT22;69411;45.656;11.740;2023-12-20T04:29:56;3.10;73.80
64817;DHT22;69411;45.656;11.740;2023-12-20T04:32:22;3.20;73.90
64817;DHT22;69411;45.656;11.740;2023-12-20T04:34:48;3.20;74.10
64817;DHT22;69411;45.656;11.740;2023-12-20T04:37:14;3.20;74.00
64817;DHT22;69411;45.656;11.740;2023-12-20T04:39:40;3.30;74.00
64817;DHT22;69411;45.656;11.740;2023-12-20T04:42:07;3.30;74.00
64817;DHT22;69411;45.656;11.740;2023-12-20T04:44:33;3.30;74.10
64817;DHT22;69411;45.656;11.740;2023-12-20T04:46:59;3.40;74.00
64817;DHT22;69411;45.656;11.740;2023-12-20T04:49:25;3.40;74.10
64817;DHT22;69411;45.656;11.740;2023-12-20T04:51:51;3.40;73.80
64817;DHT22;69411;45.656;11.740;2023-12-20T04:54:17;3.40;73.70
64817;DHT22;69411;45.656;11.740;2023-12-20T04:56:43;3.40;73.60
64817;DHT22;69411;45.656;11.740;2023-12-20T04:59:09;3.40;73.60
64817;DHT22;69411;45.656;11.740;2023-12-20T05:01:34;3.40;73.70
64817;DHT22;69411;45.656;11.740;2023-12-20T05:04:01;3.50;73.50
64817;DHT22;69411;45.656;11.740;2023-12-20T05:06:27;3.50;73.40
64817;DHT22;69411;45.656;11.740;2023-12-20T05:08:52;3.40;73.60
64817;DHT22;69411;45.656;11.740;2023-12-20T05:11:18;3.40;73.70
64817;DHT22;69411;45.656;11.740;2023-12-20T05:13:44;3.40;73.80
64817;DHT22;69411;45.656;11.740;2023-12-20T05:16:10;3.40;73.90
64817;DHT22;69411;45.656;11.740;2023-12-20T05:18:36;3.40;73.60
64817;DHT22;69411;45.656;11.740;2023-12-20T05:21:02;3.40;73.50
64817;DHT22;69411;45.656;11.740;2023-12-20T05:23:28;3.40;73.60
64817;DHT22;69411;45.656;11.740;2023-12-20T05:25:54;3.50;73.80
64817;DHT22;69411;45.656;11.740;2023-12-20T05:28:21;3.40;73.60
64817;DHT22;69411;45.656;11.740;2023-12-20T05:30:47;3.40;73.50
64817;DHT22;69411;45.656;11.740;2023-12-20T05:33:13;3.40;73.40
64817;DHT22;69411;45.656;11.740;2023-12-20T05:35:38;3.40;73.40
64817;DHT22;69411;45.656;11.740;2023-12-20T05:38:04;3.40;73.50
64817;DHT22;69411;45.656;11.740;2023-12-20T05:40:30;3.40;73.30
64817;DHT22;69411;45.656;11.740;2023-12-20T05:42:56;3.40;73.30
64817;DHT22;69411;45.656;11.740;2023-12-20T05:45:22;3.40;73.40
64817;DHT22;69411;45.656;11.740;2023-12-20T05:47:48;3.40;73.40
64817;DHT22;69411;45.656;11.740;2023-12-20T05:50:14;3.40;73.40
64817;DHT22;69411;45.656;11.740;2023-12-20T05:52:40;3.40;73.50
64817;DHT22;69411;45.656;11.740;2023-12-20T05:55:06;3.50;73.50
64817;DHT22;69411;45.656;11.740;2023-12-20T05:57:32;3.50;73.50
64817;DHT22;69411;45.656;11.740;2023-12-20T05:59:58;3.50;73.80
64817;DHT22;69411;45.656;11.740;2023-12-20T06:02:24;3.50;73.80
64817;DHT22;69411;45.656;11.740;2023-12-20T06:04:50;3.60;73.80
64817;DHT22;69411;45.656;11.740;2023-12-20T06:07:16;3.60;73.80
64817;DHT22;69411;45.656;11.740;2023-12-20T06:09:42;3.60;73.90
64817;DHT22;69411;45.656;11.740;2023-12-20T06:12:08;3.70;73.50
64817;DHT22;69411;45.656;11.740;2023-12-20T06:14:34;3.70;73.10
64817;DHT22;69411;45.656;11.740;2023-12-20T06:17:00;3.70;72.90
64817;DHT22;69411;45.656;11.740;2023-12-20T06:19:27;3.70;72.80
64817;DHT22;69411;45.656;11.740;2023-12-20T06:21:53;3.80;72.80
64817;DHT22;69411;45.656;11.740;2023-12-20T06:24:19;3.80;73.10
64817;DHT22;69411;45.656;11.740;2023-12-20T06:26:45;3.80;73.30
64817;DHT22;69411;45.656;11.740;2023-12-20T06:29:12;3.80;73.30
64817;DHT22;69411;45.656;11.740;2023-12-20T06:31:38;3.80;73.50
64817;DHT22;69411;45.656;11.740;2023-12-20T06:34:04;3.90;73.70
64817;DHT22;69411;45.656;11.740;2023-12-20T06:36:30;3.90;73.60
64817;DHT22;69411;45.656;11.740;2023-12-20T06:38:56;3.90;73.50
64817;DHT22;69411;45.656;11.740;2023-12-20T06:41:22;3.90;73.60
64817;DHT22;69411;45.656;11.740;2023-12-20T06:43:50;3.90;73.60
64817;DHT22;69411;45.656;11.740;2023-12-20T06:46:17;3.90;73.50
64817;DHT22;69411;45.656;11.740;2023-12-20T06:48:43;4.00;73.40
64817;DHT22;69411;45.656;11.740;2023-12-20T06:51:15;4.00;73.30
64817;DHT22;69411;45.656;11.740;2023-12-20T06:53:42;4.00;73.20
64817;DHT22;69411;45.656;11.740;2023-12-20T06:56:10;4.00;72.70
64817;DHT22;69411;45.656;11.740;2023-12-20T06:58:37;4.00;72.70
64817;DHT22;69411;45.656;11.740;2023-12-20T07:01:04;3.90;73.00
64817;DHT22;69411;45.656;11.740;2023-12-20T07:03:31;3.90;73.00
64817;DHT22;69411;45.656;11.740;2023-12-20T07:05:56;3.90;73.10
64817;DHT22;69411;45.656;11.740;2023-12-20T07:08:22;4.00;72.90
64817;DHT22;69411;45.656;11.740;2023-12-20T07:10:48;4.10;73.30
64817;DHT22;69411;45.656;11.740;2023-12-20T07:13:14;4.10;73.50
64817;DHT22;69411;45.656;11.740;2023-12-20T07:15:40;4.10;73.20
64817;DHT22;69411;45.656;11.740;2023-12-20T07:18:06;4.20;73.40
64817;DHT22;69411;45.656;11.740;2023-12-20T07:20:32;4.20;73.50
64817;DHT22;69411;45.656;11.740;2023-12-20T07:22:59;4.30;73.50
64817;DHT22;69411;45.656;11.740;2023-12-20T07:25:25;4.30;73.40
64817;DHT22;69411;45.656;11.740;2023-12-20T07:27:51;4.30;73.40
64817;DHT22;69411;45.656;11.740;2023-12-20T07:30:17;4.40;73.30
64817;DHT22;69411;45.656;11.740;2023-12-20T07:32:43;4.40;73.40
64817;DHT22;69411;45.656;11.740;2023-12-20T07:35:09;4.40;73.40
64817;DHT22;69411;45.656;11.740;2023-12-20T07:37:35;4.40;73.30
64817;DHT22;69411;45.656;11.740;2023-12-20T07:40:01;4.40;73.20
64817;DHT22;69411;45.656;11.740;2023-12-20T07:42:27;4.40;73.40
64817;DHT22;69411;45.656;11.740;2023-12-20T07:44:53;4.50;73.40
64817;DHT22;69411;45.656;11.740;2023-12-20T07:47:19;4.50;73.30
64817;DHT22;69411;45.656;11.740;2023-12-20T07:49:48;4.50;73.50
64817;DHT22;69411;45.656;11.740;2023-12-20T07:52:15;4.50;73.50
64817;DHT22;69411;45.656;11.740;2023-12-20T07:54:41;4.60;73.50
64817;DHT22;69411;45.656;11.740;2023-12-20T07:57:07;4.60;73.60
64817;DHT22;69411;45.656;11.740;2023-12-20T07:59:32;4.70;73.50
64817;DHT22;69411;45.656;11.740;2023-12-20T08:01:59;4.70;73.30
64817;DHT22;69411;45.656;11.740;2023-12-20T08:04:25;4.80;73.60
64817;DHT22;69411;45.656;11.740;2023-12-20T08:06:51;4.90;73.60
64817;DHT22;69411;45.656;11.740;2023-12-20T08:09:17;4.90;73.60
64817;DHT22;69411;45.656;11.740;2023-12-20T08:11:47;4.90;73.40
64817;DHT22;69411;45.656;11.740;2023-12-20T08:14:14;5.00;73.40
64817;DHT22;69411;45.656;11.740;2023-12-20T08:16:40;5.00;73.30
64817;DHT22;69411;45.656;11.740;2023-12-20T08:19:06;5.00;73.20
64817;DHT22;69411;45.656;11.740;2023-12-20T08:21:35;5.00;73.20
64817;DHT22;69411;45.656;11.740;2023-12-20T08:24:01;5.00;73.10
64817;DHT22;69411;45.656;11.740;2023-12-20T08:26:27;5.10;73.30
64817;DHT22;69411;45.656;11.740;2023-12-20T08:28:53;5.10;73.20
64817;DHT22;69411;45.656;11.740;2023-12-20T08:31:19;5.10;73.10
64817;DHT22;69411;45.656;11.740;2023-12-20T08:33:47;5.10;73.20
64817;DHT22;69411;45.656;11.740;2023-12-20T08:36:13;5.10;73.10
64817;DHT22;69411;45.656;11.740;2023-12-20T08:38:39;5.20;73.10
64817;DHT22;69411;45.656;11.740;2023-12-20T08:41:06;5.20;73.30
64817;DHT22;69411;45.656;11.740;2023-12-20T08:43:35;5.30;73.40
64817;DHT22;69411;45.656;11.740;2023-12-20T08:46:02;5.30;73.30
64817;DHT22;69411;45.656;11.740;2023-12-20T08:48:28;5.40;73.40
64817;DHT22;69411;45.656;11.740;2023-12-20T08:50:54;5.50;73.50
64817;DHT22;69411;45.656;11.740;2023-12-20T08:53:20;5.50;73.60
64817;DHT22;69411;45.656;11.740;2023-12-20T08:55:47;5.60;73.60
64817;DHT22;69411;45.656;11.740;2023-12-20T08:58:13;5.70;73.60
64817;DHT22;69411;45.656;11.740;2023-12-20T09:00:39;5.80;73.50
64817;DHT22;69411;45.656;11.740;2023-12-20T09:03:05;5.90;73.60
64817;DHT22;69411;45.656;11.740;2023-12-20T09:05:31;6.00;73.60
64817;DHT22;69411;45.656;11.740;2023-12-20T09:07:57;6.10;73.40
64817;DHT22;69411;45.656;11.740;2023-12-20T09:10:23;6.20;73.40
64817;DHT22;69411;45.656;11.740;2023-12-20T09:12:53;6.30;73.20
64817;DHT22;69411;45.656;11.740;2023-12-20T09:15:26;6.30;73.30
64817;DHT22;69411;45.656;11.740;2023-12-20T09:17:53;6.50;73.10
64817;DHT22;69411;45.656;11.740;2023-12-20T09:20:19;6.60;73.10
64817;DHT22;69411;45.656;11.740;2023-12-20T09:22:45;6.70;73.00
64817;DHT22;69411;45.656;11.740;2023-12-20T09:25:13;6.80;73.10
64817;DHT22;69411;45.656;11.740;2023-12-20T09:27:40;6.90;72.90
64817;DHT22;69411;45.656;11.740;2023-12-20T09:30:07;6.90;72.80
64817;DHT22;69411;45.656;11.740;2023-12-20T09:32:33;7.00;72.80
64817;DHT22;69411;45.656;11.740;2023-12-20T09:35:00;7.20;72.50
64817;DHT22;69411;45.656;11.740;2023-12-20T09:37:27;7.20;72.30
64817;DHT22;69411;45.656;11.740;2023-12-20T09:39:54;7.30;72.00
64817;DHT22;69411;45.656;11.740;2023-12-20T09:42:51;7.40;72.00
64817;DHT22;69411;45.656;11.740;2023-12-20T09:45:21;7.40;71.60
64817;DHT22;69411;45.656;11.740;2023-12-20T09:47:53;7.50;71.70
64817;DHT22;69411;45.656;11.740;2023-12-20T09:50:21;7.50;71.40
64817;DHT22;69411;45.656;11.740;2023-12-20T09:52:52;7.60;71.40
64817;DHT22;69411;45.656;11.740;2023-12-20T09:55:20;7.60;71.20
64817;DHT22;69411;45.656;11.740;2023-12-20T09:57:46;7.60;71.10
64817;DHT22;69411;45.656;11.740;2023-12-20T10:00:13;7.70;71.20
64817;DHT22;69411;45.656;11.740;2023-12-20T10:02:48;7.70;71.30
64817;DHT22;69411;45.656;11.740;2023-12-20T10:05:16;7.70;71.30
64817;DHT22;69411;45.656;11.740;2023-12-20T10:07:46;7.70;71.50
64817;DHT22;69411;45.656;11.740;2023-12-20T10:10:13;7.80;71.40
64817;DHT22;69411;45.656;11.740;2023-12-20T10:12:39;7.80;71.50
64817;DHT22;69411;45.656;11.740;2023-12-20T10:15:06;7.80;71.50
64817;DHT22;69411;45.656;11.740;2023-12-20T10:17:32;7.90;71.50
64817;DHT22;69411;45.656;11.740;2023-12-20T10:19:58;7.90;71.60
64817;DHT22;69411;45.656;11.740;2023-12-20T10:22:24;7.90;71.50
64817;DHT22;69411;45.656;11.740;2023-12-20T10:24:51;7.90;71.40
64817;DHT22;69411;45.656;11.740;2023-12-20T10:27:18;8.00;71.50
64817;DHT22;69411;45.656;11.740;2023-12-20T10:29:45;8.00;71.30
64817;DHT22;69411;45.656;11.740;2023-12-20T10:32:27;8.00;71.40
64817;DHT22;69411;45.656;11.740;2023-12-20T10:34:54;8.00;71.40
64817;DHT22;69411;45.656;11.740;2023-12-20T10:37:21;8.10;71.40
64817;DHT22;69411;45.656;11.740;2023-12-20T10:39:51;8.20;71.20
64817;DHT22;69411;45.656;11.740;2023-12-20T10:42:20;8.20;71.00
64817;DHT22;69411;45.656;11.740;2023-12-20T10:44:48;8.20;71.00
64817;DHT22;69411;45.656;11.740;2023-12-20T10:47:15;8.30;71.10
64817;DHT22;69411;45.656;11.740;2023-12-20T10:49:42;8.40;71.00
64817;DHT22;69411;45.656;11.740;2023-12-20T10:52:12;8.40;70.80
64817;DHT22;69411;45.656;11.740;2023-12-20T10:54:39;8.50;70.80
64817;DHT22;69411;45.656;11.740;2023-12-20T10:57:06;8.50;70.60
64817;DHT22;69411;45.656;11.740;2023-12-20T10:59:37;8.60;70.30
64817;DHT22;69411;45.656;11.740;2023-12-20T11:02:05;8.70;70.10
64817;DHT22;69411;45.656;11.740;2023-12-20T11:07:52;8.80;70.00
64817;DHT22;69411;45.656;11.740;2023-12-20T11:13:05;8.90;69.90
64817;DHT22;69411;45.656;11.740;2023-12-20T11:15:36;8.90;69.90
64817;DHT22;69411;45.656;11.740;2023-12-20T11:18:04;8.90;69.80
64817;DHT22;69411;45.656;11.740;2023-12-20T11:20:41;8.90;69.60
64817;DHT22;69411;45.656;11.740;2023-12-20T11:23:08;8.90;69.70
64817;DHT22;69411;45.656;11.740;2023-12-20T11:25:53;8.90;69.50
64817;DHT22;69411;45.656;11.740;2023-12-20T11:28:23;8.90;69.50
64817;DHT22;69411;45.656;11.740;2023-12-20T11:30:52;8.90;69.50
64817;DHT22;69411;45.656;11.740;2023-12-20T11:33:25;8.90;69.50
64817;DHT22;69411;45.656;11.740;2023-12-20T11:35:52;8.90;69.40
64817;DHT22;69411;45.656;11.740;2023-12-20T11:38:21;8.90;68.30
64817;DHT22;69411;45.656;11.740;2023-12-20T11:40:51;8.90;68.70
64817;DHT22;69411;45.656;11.740;2023-12-20T11:45:50;8.90;68.90
64817;DHT22;69411;45.656;11.740;2023-12-20T11:48:17;8.90;69.00
64817;DHT22;69411;45.656;11.740;2023-12-20T11:50:45;8.90;69.10
64817;DHT22;69411;45.656;11.740;2023-12-20T11:53:11;8.90;69.00
64817;DHT22;69411;45.656;11.740;2023-12-20T11:55:39;8.90;68.70
64817;DHT22;69411;45.656;11.740;2023-12-20T11:58:05;8.90;69.20
64817;DHT22;69411;45.656;11.740;2023-12-20T12:00:30;8.90;69.20
64817;DHT22;69411;45.656;11.740;2023-12-20T12:02:58;8.80;69.60
64817;DHT22;69411;45.656;11.740;2023-12-20T12:05:24;8.80;69.50
64817;DHT22;69411;45.656;11.740;2023-12-20T12:07:50;8.80;69.70
64817;DHT22;69411;45.656;11.740;2023-12-20T12:10:16;8.70;69.90
64817;DHT22;69411;45.656;11.740;2023-12-20T12:12:42;8.80;69.90
64817;DHT22;69411;45.656;11.740;2023-12-20T12:15:08;8.80;70.00
64817;DHT22;69411;45.656;11.740;2023-12-20T12:17:35;8.80;70.00
64817;DHT22;69411;45.656;11.740;2023-12-20T12:20:05;8.90;70.10
64817;DHT22;69411;45.656;11.740;2023-12-20T12:22:31;8.90;70.00
64817;DHT22;69411;45.656;11.740;2023-12-20T12:25:10;8.90;70.10
64817;DHT22;69411;45.656;11.740;2023-12-20T12:27:40;9.00;70.10
64817;DHT22;69411;45.656;11.740;2023-12-20T12:30:06;9.00;70.20
64817;DHT22;69411;45.656;11.740;2023-12-20T12:32:36;9.10;70.20
64817;DHT22;69411;45.656;11.740;2023-12-20T12:35:04;9.10;70.20
64817;DHT22;69411;45.656;11.740;2023-12-20T12:37:34;9.10;70.10
64817;DHT22;69411;45.656;11.740;2023-12-20T12:40:01;9.10;70.00
64817;DHT22;69411;45.656;11.740;2023-12-20T12:42:27;9.20;69.90
64817;DHT22;69411;45.656;11.740;2023-12-20T12:47:38;9.20;69.90
64817;DHT22;69411;45.656;11.740;2023-12-20T12:50:04;9.30;69.80
64817;DHT22;69411;45.656;11.740;2023-12-20T12:52:31;9.30;69.90
64817;DHT22;69411;45.656;11.740;2023-12-20T12:54:57;9.30;69.60
64817;DHT22;69411;45.656;11.740;2023-12-20T12:57:23;9.40;69.40
64817;DHT22;69411;45.656;11.740;2023-12-20T12:59:49;9.40;69.30
64817;DHT22;69411;45.656;11.740;2023-12-20T13:02:16;9.40;69.40
64817;DHT22;69411;45.656;11.740;2023-12-20T13:04:42;9.40;69.60
64817;DHT22;69411;45.656;11.740;2023-12-20T13:07:10;9.40;69.40
64817;DHT22;69411;45.656;11.740;2023-12-20T13:09:39;9.40;67.80
64817;DHT22;69411;45.656;11.740;2023-12-20T13:12:08;9.40;67.80
64817;DHT22;69411;45.656;11.740;2023-12-20T13:14:35;9.40;68.40
64817;DHT22;69411;45.656;11.740;2023-12-20T13:17:04;9.40;68.50
64817;DHT22;69411;45.656;11.740;2023-12-20T13:19:31;9.40;68.20
64817;DHT22;69411;45.656;11.740;2023-12-20T13:21:59;9.50;68.20
64817;DHT22;69411;45.656;11.740;2023-12-20T13:24:26;9.50;68.40
64817;DHT22;69411;45.656;11.740;2023-12-20T13:26:52;9.50;68.20
64817;DHT22;69411;45.656;11.740;2023-12-20T13:29:18;9.60;68.20
64817;DHT22;69411;45.656;11.740;2023-12-20T13:31:44;9.60;68.30
64817;DHT22;69411;45.656;11.740;2023-12-20T13:34:11;9.70;68.30
64817;DHT22;69411;45.656;11.740;2023-12-20T13:36:41;9.70;68.20
64817;DHT22;69411;45.656;11.740;2023-12-20T13:39:12;9.80;67.90
64817;DHT22;69411;45.656;11.740;2023-12-20T13:41:39;9.90;67.90
64817;DHT22;69411;45.656;11.740;2023-12-20T13:44:06;9.90;67.90
64817;DHT22;69411;45.656;11.740;2023-12-20T13:46:33;10.00;67.80
64817;DHT22;69411;45.656;11.740;2023-12-20T13:49:00;10.10;67.30
64817;DHT22;69411;45.656;11.740;2023-12-20T13:51:30;10.20;67.30
64817;DHT22;69411;45.656;11.740;2023-12-20T13:53:57;10.20;66.90
64817;DHT22;69411;45.656;11.740;2023-12-20T13:56:24;10.30;66.50
64817;DHT22;69411;45.656;11.740;2023-12-20T13:58:51;10.30;66.00
64817;DHT22;69411;45.656;11.740;2023-12-20T14:01:18;10.30;65.90
64817;DHT22;69411;45.656;11.740;2023-12-20T14:03:45;10.30;65.00
64817;DHT22;69411;45.656;11.740;2023-12-20T14:06:12;10.40;65.30
64817;DHT22;69411;45.656;11.740;2023-12-20T14:08:39;10.40;65.40
64817;DHT22;69411;45.656;11.740;2023-12-20T14:11:05;10.30;65.40
64817;DHT22;69411;45.656;11.740;2023-12-20T14:13:31;10.30;65.50
64817;DHT22;69411;45.656;11.740;2023-12-20T14:15:57;10.30;65.60
64817;DHT22;69411;45.656;11.740;2023-12-20T14:18:24;10.30;65.00
64817;DHT22;69411;45.656;11.740;2023-12-20T14:20:50;10.30;65.30
64817;DHT22;69411;45.656;11.740;2023-12-20T14:23:16;10.30;65.50
64817;DHT22;69411;45.656;11.740;2023-12-20T14:25:43;10.30;65.20
64817;DHT22;69411;45.656;11.740;2023-12-20T14:28:09;10.30;65.40
64817;DHT22;69411;45.656;11.740;2023-12-20T14:30:36;10.30;65.50
64817;DHT22;69411;45.656;11.740;2023-12-20T14:33:04;10.30;65.60
64817;DHT22;69411;45.656;11.740;2023-12-20T14:35:30;10.20;65.60
64817;DHT22;69411;45.656;11.740;2023-12-20T14:37:57;10.20;65.70
64817;DHT22;69411;45.656;11.740;2023-12-20T14:40:23;10.20;65.80
64817;DHT22;69411;45.656;11.740;2023-12-20T14:42:49;10.10;65.90
64817;DHT22;69411;45.656;11.740;2023-12-20T14:45:17;10.10;66.00
64817;DHT22;69411;45.656;11.740;2023-12-20T14:47:46;10.00;65.80
64817;DHT22;69411;45.656;11.740;2023-12-20T14:50:13;9.90;66.00
64817;DHT22;69411;45.656;11.740;2023-12-20T14:52:45;9.90;66.00
64817;DHT22;69411;45.656;11.740;2023-12-20T14:55:11;9.90;66.10
64817;DHT22;69411;45.656;11.740;2023-12-20T14:57:39;9.80;66.10
64817;DHT22;69411;45.656;11.740;2023-12-20T15:00:05;9.80;66.20
64817;DHT22;69411;45.656;11.740;2023-12-20T15:02:31;9.80;66.20
64817;DHT22;69411;45.656;11.740;2023-12-20T15:04:57;9.70;66.30
64817;DHT22;69411;45.656;11.740;2023-12-20T15:07:24;9.70;66.30
64817;DHT22;69411;45.656;11.740;2023-12-20T15:09:49;9.70;66.40
64817;DHT22;69411;45.656;11.740;2023-12-20T15:12:16;9.60;66.60
64817;DHT22;69411;45.656;11.740;2023-12-20T15:14:42;9.50;66.80
64817;DHT22;69411;45.656;11.740;2023-12-20T15:17:08;9.50;66.90
64817;DHT22;69411;45.656;11.740;2023-12-20T15:19:34;9.50;67.10
64817;DHT22;69411;45.656;11.740;2023-12-20T15:22:01;9.40;67.30
64817;DHT22;69411;45.656;11.740;2023-12-20T15:24:29;9.40;67.40
64817;DHT22;69411;45.656;11.740;2023-12-20T15:27:04;9.30;67.60
64817;DHT22;69411;45.656;11.740;2023-12-20T15:29:30;9.30;67.80
64817;DHT22;69411;45.656;11.740;2023-12-20T15:31:57;9.30;67.90
64817;DHT22;69411;45.656;11.740;2023-12-20T15:34:23;9.20;68.10
64817;DHT22;69411;45.656;11.740;2023-12-20T15:36:49;9.20;68.20
64817;DHT22;69411;45.656;11.740;2023-12-20T15:39:15;9.10;68.40